Time;durP1;ratioP1;P1;durP2;ratioP2;P2;SDS_P1;SDS_P2;PMS_P1;PMS_P2;Temp;Humidity;BMP_temperature;BMP_pressure;BME280_temperature;BME280_humidity;BME280_pressure;Samples;Min_cycle;Max_cycle;Signal;HPM_P1;HPM_P2
2024/01/24 00:01:58;;;;;;;;;;;9.60;99.90;;;;;;5089584;28;20393;-73
2024/01/24 00:04:34;;;;;;;;;;;9.10;99.90;;;;;;5106549;28;19924;-74
2024/01/24 00:07:00;;;;;;;;;;;9.50;99.90;;;;;;5089081;28;19928;-75
2024/01/24 00:09:25;;;;;;;;;;;9.50;99.90;;;;;;5067815;28;19932;-74
2024/01/24 00:11:51;;;;;;;;;;;9.50;99.90;;;;;;5086916;28;19999;-75
2024/01/24 00:14:18;;;;;;;;;;;9.20;99.90;;;;;;5090146;28;19928;-73
2024/01/24 00:16:44;;;;;;;;;;;9.50;99.90;;;;;;5091770;28;20343;-75
2024/01/24 00:19:10;;;;;;;;;;;9.10;99.90;;;;;;5108073;28;19966;-75
2024/01/24 00:21:38;;;;;;;;;;;9.50;99.90;;;;;;5055760;28;19928;-74
2024/01/24 00:24:13;;;;;;;;;;;9.40;99.90;;;;;;5108448;28;19931;-74
2024/01/24 00:26:39;;;;;;;;;;;9.30;99.90;;;;;;5090243;28;19942;-75
2024/01/24 00:29:05;;;;;;;;;;;9.70;99.90;;;;;;5074373;28;19931;-74
2024/01/24 00:31:30;;;;;;;;;;;9.50;99.90;;;;;;5087594;28;20408;-74
2024/01/24 00:34:02;;;;;;;;;;;9.60;99.90;;;;;;5090821;28;19976;-74
2024/01/24 00:36:27;;;;;;;;;;;9.70;99.90;;;;;;5074046;28;19927;-75
2024/01/24 00:38:53;;;;;;;;;;;9.70;99.90;;;;;;5089646;28;20064;-74
2024/01/24 00:41:24;;;;;;;;;;;9.70;99.90;;;;;;5089443;28;19931;-73
2024/01/24 00:43:50;;;;;;;;;;;8.60;99.90;;;;;;5090309;28;20310;-75
2024/01/24 00:46:17;;;;;;;;;;;9.90;99.90;;;;;;5090345;28;20370;-74
2024/01/24 00:48:43;;;;;;;;;;;9.20;99.90;;;;;;5086198;28;20441;-75
2024/01/24 00:51:09;;;;;;;;;;;9.60;99.90;;;;;;5088420;28;19928;-75
2024/01/24 00:53:38;;;;;;;;;;;9.50;99.90;;;;;;5073842;27;19931;-74
2024/01/24 00:56:09;;;;;;;;;;;9.60;99.90;;;;;;5107932;27;19989;-74
2024/01/24 00:58:36;;;;;;;;;;;9.70;99.90;;;;;;5090686;28;19932;-74
2024/01/24 01:01:02;;;;;;;;;;;9.60;99.90;;;;;;5088911;28;19924;-75
2024/01/24 01:03:33;;;;;;;;;;;10.00;99.90;;;;;;5057203;28;20430;-74
2024/01/24 01:06:05;;;;;;;;;;;9.90;99.90;;;;;;5089068;28;20476;-75
2024/01/24 01:08:39;;;;;;;;;;;10.10;99.90;;;;;;5090230;28;20557;-75
2024/01/24 01:11:05;;;;;;;;;;;10.10;99.90;;;;;;5087433;28;20011;-75
2024/01/24 01:13:34;;;;;;;;;;;9.70;99.90;;;;;;5088928;28;20492;-75
2024/01/24 01:16:00;;;;;;;;;;;9.60;99.90;;;;;;5086571;28;20332;-74
2024/01/24 01:18:35;;;;;;;;;;;9.80;99.90;;;;;;5090590;28;20010;-75
2024/01/24 01:21:12;;;;;;;;;;;10.00;99.90;;;;;;5072182;28;19935;-74
2024/01/24 01:23:38;;;;;;;;;;;9.80;99.90;;;;;;5106216;28;20012;-74
2024/01/24 01:26:13;;;;;;;;;;;10.10;99.90;;;;;;5088924;28;20026;-74
2024/01/24 01:28:40;;;;;;;;;;;9.70;99.90;;;;;;5106028;28;20084;-74
2024/01/24 01:31:05;;;;;;;;;;;9.80;99.90;;;;;;5104204;28;20305;-74
2024/01/24 01:33:31;;;;;;;;;;;10.10;99.90;;;;;;5087356;28;19927;-75
2024/01/24 01:36:00;;;;;;;;;;;9.70;99.90;;;;;;5103834;27;19927;-74
2024/01/24 01:38:37;;;;;;;;;;;9.90;99.90;;;;;;5088088;28;20454;-74
2024/01/24 01:41:06;;;;;;;;;;;9.80;99.90;;;;;;5103730;28;19977;-75
2024/01/24 01:43:34;;;;;;;;;;;10.10;99.90;;;;;;5106082;28;20271;-73
2024/01/24 01:46:05;;;;;;;;;;;9.90;99.90;;;;;;5071364;28;20005;-74
2024/01/24 01:48:32;;;;;;;;;;;9.70;99.90;;;;;;5104204;27;19924;-74
2024/01/24 01:50:57;;;;;;;;;;;10.10;99.90;;;;;;5103609;28;20014;-75
2024/01/24 01:53:25;;;;;;;;;;;10.00;99.90;;;;;;5071082;28;19991;-74
2024/01/24 01:55:51;;;;;;;;;;;9.70;99.90;;;;;;5050702;28;19927;-75
2024/01/24 01:58:16;;;;;;;;;;;10.00;99.90;;;;;;5086515;28;20807;-74
2024/01/24 02:00:46;;;;;;;;;;;9.50;99.90;;;;;;5103727;28;19946;-74
2024/01/24 02:03:16;;;;;;;;;;;9.70;99.90;;;;;;5102683;28;19928;-74
2024/01/24 02:05:44;;;;;;;;;;;9.60;99.90;;;;;;5085072;28;20293;-74
2024/01/24 02:08:11;;;;;;;;;;;9.70;99.90;;;;;;5088455;28;20305;-75
2024/01/24 02:10:38;;;;;;;;;;;9.80;99.90;;;;;;5084515;28;20390;-73
2024/01/24 02:13:05;;;;;;;;;;;9.40;99.90;;;;;;5068650;28;20100;-74
2024/01/24 02:15:35;;;;;;;;;;;9.80;99.90;;;;;;5105301;28;19923;-74
2024/01/24 02:18:03;;;;;;;;;;;9.40;99.90;;;;;;5087090;28;20379;-74
2024/01/24 02:20:35;;;;;;;;;;;9.60;99.90;;;;;;5086079;28;20500;-75
2024/01/24 02:23:08;;;;;;;;;;;9.70;99.90;;;;;;5084958;28;19934;-75
2024/01/24 02:25:34;;;;;;;;;;;9.30;99.90;;;;;;5102206;28;20309;-73
2024/01/24 02:27:59;;;;;;;;;;;9.30;99.90;;;;;;5066521;28;19927;-75
2024/01/24 02:30:25;;;;;;;;;;;9.50;99.90;;;;;;5068214;28;20097;-73
2024/01/24 02:32:51;;;;;;;;;;;9.40;99.90;;;;;;5051825;28;20811;-74
2024/01/24 02:35:27;;;;;;;;;;;9.30;99.90;;;;;;5101370;28;19927;-74
2024/01/24 02:37:53;;;;;;;;;;;9.20;99.90;;;;;;5067917;28;19924;-74
2024/01/24 02:40:18;;;;;;;;;;;9.50;99.90;;;;;;5100459;28;19961;-74
2024/01/24 02:42:45;;;;;;;;;;;9.10;99.90;;;;;;5052417;28;19923;-73
2024/01/24 02:45:11;;;;;;;;;;;9.30;99.90;;;;;;5083738;28;20200;-75
2024/01/24 02:47:44;;;;;;;;;;;9.70;99.90;;;;;;5086017;28;19928;-75
2024/01/24 02:50:17;;;;;;;;;;;9.70;99.90;;;;;;5054065;28;19930;-75
2024/01/24 02:52:51;;;;;;;;;;;9.30;99.90;;;;;;5065283;28;19976;-74
2024/01/24 02:55:17;;;;;;;;;;;9.20;99.90;;;;;;5068679;28;19928;-74
2024/01/24 02:57:43;;;;;;;;;;;9.60;99.90;;;;;;5084474;28;19923;-74
2024/01/24 03:00:15;;;;;;;;;;;9.00;99.90;;;;;;5069634;28;20028;-74
2024/01/24 03:02:41;;;;;;;;;;;9.40;99.90;;;;;;5086933;28;19967;-75
2024/01/24 03:05:10;;;;;;;;;;;9.50;99.90;;;;;;5087291;28;20400;-74
2024/01/24 03:07:45;;;;;;;;;;;9.60;99.90;;;;;;5086048;28;19930;-74
2024/01/24 03:10:11;;;;;;;;;;;9.20;99.90;;;;;;5070306;28;19932;-74
2024/01/24 03:12:44;;;;;;;;;;;9.00;99.90;;;;;;5087718;28;20328;-74
2024/01/24 03:15:12;;;;;;;;;;;9.60;99.90;;;;;;5065480;28;20018;-75
2024/01/24 03:17:39;;;;;;;;;;;9.20;99.90;;;;;;5085978;28;19994;-74
2024/01/24 03:20:07;;;;;;;;;;;8.90;99.90;;;;;;5086007;28;19928;-74
2024/01/24 03:22:33;;;;;;;;;;;8.90;99.90;;;;;;5091501;28;19928;-75
2024/01/24 03:24:58;;;;;;;;;;;8.90;99.90;;;;;;5084458;28;20005;-74
2024/01/24 03:27:24;;;;;;;;;;;9.30;99.90;;;;;;5085950;28;20389;-74
2024/01/24 03:29:51;;;;;;;;;;;9.40;99.90;;;;;;5086934;28;20014;-76
2024/01/24 03:32:18;;;;;;;;;;;8.90;99.90;;;;;;5070400;28;19923;-75
2024/01/24 03:34:54;;;;;;;;;;;9.40;99.90;;;;;;5087947;28;19973;-73
2024/01/24 03:37:21;;;;;;;;;;;9.50;99.90;;;;;;5100278;28;19985;-74
2024/01/24 03:39:48;;;;;;;;;;;9.50;99.90;;;;;;5068841;28;20140;-73
2024/01/24 03:42:28;;;;;;;;;;;9.50;99.90;;;;;;5060681;28;20014;-74
2024/01/24 03:44:57;;;;;;;;;;;9.50;99.90;;;;;;5044333;28;20526;-74
2024/01/24 03:47:29;;;;;;;;;;;9.20;99.90;;;;;;5060014;28;19931;-74
2024/01/24 03:49:54;;;;;;;;;;;9.40;99.90;;;;;;5044939;28;20030;-74
2024/01/24 03:52:24;;;;;;;;;;;9.00;99.90;;;;;;5064425;28;19924;-74
2024/01/24 03:54:56;;;;;;;;;;;8.70;99.90;;;;;;5049190;28;20019;-75
2024/01/24 03:57:21;;;;;;;;;;;8.70;99.90;;;;;;5040860;28;19928;-74
2024/01/24 03:59:47;;;;;;;;;;;8.70;99.90;;;;;;5028906;28;19928;-74
2024/01/24 04:02:12;;;;;;;;;;;8.70;99.90;;;;;;5033354;28;19935;-74
2024/01/24 04:04:44;;;;;;;;;;;8.60;99.90;;;;;;5028871;28;20170;-74
2024/01/24 04:07:11;;;;;;;;;;;8.80;99.90;;;;;;5026536;28;19928;-74
2024/01/24 04:09:37;;;;;;;;;;;9.30;99.90;;;;;;5048042;28;19928;-74
2024/01/24 04:12:04;;;;;;;;;;;8.70;99.90;;;;;;5063374;28;20448;-73
2024/01/24 04:14:33;;;;;;;;;;;8.90;99.90;;;;;;5086182;28;19931;-74
2024/01/24 04:16:59;;;;;;;;;;;8.90;99.90;;;;;;5070916;28;19927;-73
2024/01/24 04:19:25;;;;;;;;;;;9.30;99.90;;;;;;5071786;28;20578;-73
2024/01/24 04:21:57;;;;;;;;;;;8.80;99.90;;;;;;5087956;28;19935;-73
2024/01/24 04:24:24;;;;;;;;;;;8.50;99.90;;;;;;5088564;28;19980;-73
2024/01/24 04:26:49;;;;;;;;;;;8.90;99.90;;;;;;5085328;28;20402;-74
2024/01/24 04:29:16;;;;;;;;;;;9.10;99.90;;;;;;5087282;28;19924;-73
2024/01/24 04:31:48;;;;;;;;;;;8.40;99.90;;;;;;5107501;28;19928;-75
2024/01/24 04:34:17;;;;;;;;;;;9.10;99.90;;;;;;5090762;28;20323;-73
2024/01/24 04:36:44;;;;;;;;;;;9.10;99.90;;;;;;5092500;28;20317;-74
2024/01/24 04:39:10;;;;;;;;;;;8.80;99.90;;;;;;5087646;28;19927;-74
2024/01/24 04:41:38;;;;;;;;;;;8.80;99.90;;;;;;5088118;28;19931;-72
2024/01/24 04:44:16;;;;;;;;;;;8.50;99.90;;;;;;5090934;28;19980;-73
2024/01/24 04:46:47;;;;;;;;;;;8.70;99.90;;;;;;5106576;28;19927;-74
2024/01/24 04:49:14;;;;;;;;;;;8.80;99.90;;;;;;5071294;28;19949;-74
2024/01/24 04:51:40;;;;;;;;;;;9.10;99.90;;;;;;5090307;28;19935;-74
2024/01/24 04:54:06;;;;;;;;;;;9.20;99.90;;;;;;5070064;27;19959;-74
2024/01/24 04:56:34;;;;;;;;;;;9.20;99.90;;;;;;5053229;27;19977;-74
2024/01/24 04:59:06;;;;;;;;;;;8.60;99.90;;;;;;5070502;28;19935;-73
2024/01/24 05:01:41;;;;;;;;;;;8.60;99.90;;;;;;5092146;28;19992;-74
2024/01/24 05:04:25;;;;;;;;;;;8.60;99.90;;;;;;5087119;28;19931;-75
2024/01/24 05:06:50;;;;;;;;;;;8.50;99.90;;;;;;5088843;27;19931;-75
2024/01/24 05:09:26;;;;;;;;;;;9.30;99.90;;;;;;5071372;28;20290;-74
2024/01/24 05:11:52;;;;;;;;;;;9.10;99.90;;;;;;5089526;28;19927;-74
2024/01/24 05:14:17;;;;;;;;;;;9.20;99.90;;;;;;5104877;28;19935;-74
2024/01/24 05:16:44;;;;;;;;;;;8.60;99.90;;;;;;5073073;28;20449;-74
2024/01/24 05:19:10;;;;;;;;;;;9.10;99.90;;;;;;5068981;28;19935;-74
2024/01/24 05:21:40;;;;;;;;;;;8.90;99.90;;;;;;5071581;28;19936;-75
2024/01/24 05:24:06;;;;;;;;;;;8.40;99.90;;;;;;5102420;28;20022;-74
2024/01/24 05:26:33;;;;;;;;;;;9.00;99.90;;;;;;5089101;28;20046;-74
2024/01/24 05:28:58;;;;;;;;;;;8.60;99.90;;;;;;5085933;28;19981;-74
2024/01/24 05:31:25;;;;;;;;;;;8.60;99.90;;;;;;5106394;28;19939;-75
2024/01/24 05:33:55;;;;;;;;;;;8.60;99.90;;;;;;5072250;28;19992;-74
2024/01/24 05:36:21;;;;;;;;;;;8.80;99.90;;;;;;5082461;28;19980;-75
2024/01/24 05:38:47;;;;;;;;;;;8.90;99.90;;;;;;5074644;28;19928;-74
2024/01/24 05:41:23;;;;;;;;;;;8.50;99.90;;;;;;5107193;27;20375;-74
2024/01/24 05:43:55;;;;;;;;;;;8.40;99.90;;;;;;5042399;28;20072;-74
2024/01/24 05:46:21;;;;;;;;;;;8.80;99.90;;;;;;5022858;28;20805;-74
2024/01/24 05:48:48;;;;;;;;;;;8.20;99.90;;;;;;5026567;28;19936;-74
2024/01/24 05:51:29;;;;;;;;;;;8.40;99.90;;;;;;5041912;28;19968;-74
2024/01/24 05:53:54;;;;;;;;;;;8.50;99.90;;;;;;5021961;28;20412;-73
2024/01/24 05:56:26;;;;;;;;;;;8.60;99.90;;;;;;5022902;28;20024;-74
2024/01/24 05:58:52;;;;;;;;;;;8.60;99.90;;;;;;5025795;28;19924;-74
2024/01/24 06:01:35;;;;;;;;;;;8.50;99.90;;;;;;5041674;28;20414;-74
2024/01/24 06:04:08;;;;;;;;;;;7.80;99.90;;;;;;5024528;28;19940;-74
2024/01/24 06:06:33;;;;;;;;;;;8.40;99.90;;;;;;5021233;28;20164;-74
2024/01/24 06:08:59;;;;;;;;;;;8.70;99.90;;;;;;5004108;28;20007;-76
2024/01/24 06:11:25;;;;;;;;;;;8.60;99.90;;;;;;5001902;28;19948;-75
2024/01/24 06:13:50;;;;;;;;;;;8.70;99.90;;;;;;5004389;28;20008;-74
2024/01/24 06:16:19;;;;;;;;;;;8.50;99.90;;;;;;5076397;28;20031;-74
2024/01/24 06:18:45;;;;;;;;;;;8.70;99.90;;;;;;5062256;28;20345;-74
2024/01/24 06:21:11;;;;;;;;;;;8.30;99.90;;;;;;5065561;28;19928;-78
2024/01/24 06:23:54;;;;;;;;;;;8.20;99.90;;;;;;5067632;28;19942;-79
2024/01/24 06:26:27;;;;;;;;;;;8.00;99.90;;;;;;5061591;28;19935;-78
2024/01/24 06:29:06;;;;;;;;;;;8.60;99.90;;;;;;5080925;28;19974;-79
2024/01/24 06:31:40;;;;;;;;;;;8.40;99.90;;;;;;5082222;28;19928;-78
2024/01/24 06:34:18;;;;;;;;;;;7.90;99.90;;;;;;5067467;28;20564;-79
2024/01/24 06:36:44;;;;;;;;;;;8.50;99.90;;;;;;5088286;28;19936;-79
2024/01/24 06:39:09;;;;;;;;;;;8.10;99.90;;;;;;5087557;28;19928;-78
2024/01/24 06:41:45;;;;;;;;;;;8.50;99.90;;;;;;5108593;28;19924;-79
2024/01/24 06:44:16;;;;;;;;;;;8.00;99.50;;;;;;5071034;28;19932;-78
2024/01/24 06:47:04;;;;;;;;;;;8.30;99.50;;;;;;5078247;28;19927;-77
2024/01/24 06:49:37;;;;;;;;;;;8.70;99.40;;;;;;5089157;28;19924;-77
2024/01/24 06:52:07;;;;;;;;;;;8.40;99.20;;;;;;5072625;28;19920;-78
2024/01/24 06:54:52;;;;;;;;;;;8.10;98.90;;;;;;5090970;28;19927;-79
2024/01/24 06:57:18;;;;;;;;;;;8.50;99.00;;;;;;5071777;28;19924;-73
2024/01/24 06:59:43;;;;;;;;;;;8.60;99.00;;;;;;5067557;28;20394;-75
2024/01/24 07:02:13;;;;;;;;;;;8.70;98.80;;;;;;5105801;28;19920;-74
2024/01/24 07:04:38;;;;;;;;;;;8.70;98.70;;;;;;5086454;28;19924;-73
2024/01/24 07:07:04;;;;;;;;;;;8.60;98.60;;;;;;5085554;28;20000;-74
2024/01/24 07:09:31;;;;;;;;;;;8.50;98.90;;;;;;5084702;28;19927;-74
2024/01/24 07:12:16;;;;;;;;;;;8.70;98.80;;;;;;5086783;28;19928;-74
2024/01/24 07:14:42;;;;;;;;;;;8.40;99.00;;;;;;5086183;28;20003;-74
2024/01/24 07:17:13;;;;;;;;;;;8.10;99.20;;;;;;5069535;28;20026;-74
2024/01/24 07:19:39;;;;;;;;;;;8.00;99.20;;;;;;5078267;28;19927;-73
2024/01/24 07:22:05;;;;;;;;;;;8.40;99.70;;;;;;5049853;28;20361;-74
2024/01/24 07:24:32;;;;;;;;;;;8.10;99.90;;;;;;5106172;28;20001;-74
2024/01/24 07:26:58;;;;;;;;;;;7.90;99.80;;;;;;5053275;28;19928;-73
2024/01/24 07:29:23;;;;;;;;;;;8.30;99.90;;;;;;5087689;28;19977;-73
2024/01/24 07:31:51;;;;;;;;;;;8.60;99.90;;;;;;5087807;28;20413;-73
2024/01/24 07:34:31;;;;;;;;;;;8.60;99.90;;;;;;5091603;28;20202;-73
2024/01/24 07:36:56;;;;;;;;;;;8.60;99.90;;;;;;5104729;28;20014;-74
2024/01/24 07:39:32;;;;;;;;;;;8.00;99.90;;;;;;5090131;28;19927;-74
2024/01/24 07:41:58;;;;;;;;;;;8.50;99.90;;;;;;5072713;28;20263;-73
2024/01/24 07:44:27;;;;;;;;;;;7.80;99.90;;;;;;5088675;28;20213;-73
2024/01/24 07:46:53;;;;;;;;;;;8.40;99.90;;;;;;5088855;28;20335;-72
2024/01/24 07:49:19;;;;;;;;;;;8.50;99.90;;;;;;5089701;28;19927;-73
2024/01/24 07:51:51;;;;;;;;;;;8.20;99.90;;;;;;5057088;28;19962;-73
2024/01/24 07:54:19;;;;;;;;;;;8.50;99.90;;;;;;5088339;28;20008;-74
2024/01/24 07:56:45;;;;;;;;;;;8.10;99.90;;;;;;5087141;28;19934;-73
2024/01/24 07:59:16;;;;;;;;;;;7.80;99.90;;;;;;5089687;28;20000;-73
2024/01/24 08:01:47;;;;;;;;;;;8.30;99.90;;;;;;5088612;28;19928;-73
2024/01/24 08:04:16;;;;;;;;;;;8.50;99.90;;;;;;5105395;28;20364;-73
2024/01/24 08:06:51;;;;;;;;;;;7.80;99.90;;;;;;5088231;28;19924;-73
2024/01/24 08:09:20;;;;;;;;;;;7.80;99.90;;;;;;5107562;28;19971;-73
2024/01/24 08:11:53;;;;;;;;;;;8.30;99.90;;;;;;5107132;28;19932;-74
2024/01/24 08:14:19;;;;;;;;;;;8.30;99.90;;;;;;5106818;28;19971;-72
2024/01/24 08:17:01;;;;;;;;;;;8.50;99.90;;;;;;5088678;28;19963;-74
2024/01/24 08:19:28;;;;;;;;;;;7.90;99.90;;;;;;5086882;28;19934;-74
2024/01/24 08:21:54;;;;;;;;;;;8.50;99.90;;;;;;5057387;28;20018;-74
2024/01/24 08:24:22;;;;;;;;;;;8.10;99.90;;;;;;5089222;28;19999;-74
2024/01/24 08:27:03;;;;;;;;;;;8.20;99.90;;;;;;5106579;28;20358;-73
2024/01/24 08:29:29;;;;;;;;;;;8.60;99.90;;;;;;5087050;28;19935;-73
2024/01/24 08:31:55;;;;;;;;;;;8.60;99.90;;;;;;5086491;28;19932;-73
2024/01/24 08:34:29;;;;;;;;;;;8.50;99.90;;;;;;5070873;28;19932;-73
2024/01/24 08:37:01;;;;;;;;;;;7.90;99.70;;;;;;5087587;28;19932;-73
2024/01/24 08:39:28;;;;;;;;;;;7.90;99.70;;;;;;5087925;28;20698;-73
2024/01/24 08:41:55;;;;;;;;;;;8.00;99.50;;;;;;5056169;28;20028;-73
2024/01/24 08:44:21;;;;;;;;;;;8.00;99.50;;;;;;5072036;28;19931;-73
2024/01/24 08:46:48;;;;;;;;;;;8.70;99.60;;;;;;5053199;28;19934;-73
2024/01/24 08:49:14;;;;;;;;;;;8.60;99.70;;;;;;5104456;28;19939;-73
2024/01/24 08:51:40;;;;;;;;;;;8.20;99.60;;;;;;5088792;28;19927;-73
2024/01/24 08:54:10;;;;;;;;;;;7.00;99.30;;;;;;5071970;28;20376;-73
2024/01/24 08:56:37;;;;;;;;;;;8.50;99.40;;;;;;5086673;28;20283;-73
2024/01/24 08:59:03;;;;;;;;;;;8.80;99.40;;;;;;5057602;28;19950;-73
2024/01/24 09:01:34;;;;;;;;;;;8.70;98.20;;;;;;5088945;28;19928;-73
2024/01/24 09:04:04;;;;;;;;;;;9.40;97.20;;;;;;5107190;27;19968;-74
2024/01/24 09:06:30;;;;;;;;;;;9.00;95.80;;;;;;5088626;28;19928;-73
2024/01/24 09:08:57;;;;;;;;;;;9.30;94.90;;;;;;5070384;28;19993;-73
2024/01/24 09:11:22;;;;;;;;;;;8.90;94.50;;;;;;5086092;28;19985;-73
2024/01/24 09:13:49;;;;;;;;;;;9.50;94.60;;;;;;5071558;28;19978;-72
2024/01/24 09:16:14;;;;;;;;;;;8.90;94.60;;;;;;5088384;28;19956;-72
2024/01/24 09:18:41;;;;;;;;;;;9.00;94.50;;;;;;5083691;28;20467;-72
2024/01/24 09:21:12;;;;;;;;;;;9.00;95.00;;;;;;5086514;28;19974;-73
2024/01/24 09:23:38;;;;;;;;;;;9.00;94.60;;;;;;5087592;28;19967;-73
2024/01/24 09:26:03;;;;;;;;;;;8.80;94.80;;;;;;5085858;28;19928;-73
2024/01/24 09:28:29;;;;;;;;;;;8.60;95.60;;;;;;5069918;28;19985;-72
2024/01/24 09:30:55;;;;;;;;;;;9.20;96.20;;;;;;5087369;28;19930;-72
2024/01/24 09:33:26;;;;;;;;;;;9.10;96.70;;;;;;5089173;28;20097;-73
2024/01/24 09:35:54;;;;;;;;;;;8.90;97.00;;;;;;5053512;28;20386;-72
2024/01/24 09:38:19;;;;;;;;;;;8.50;96.90;;;;;;5085497;28;19982;-73
2024/01/24 09:40:57;;;;;;;;;;;9.10;96.80;;;;;;5086339;28;19924;-72
2024/01/24 09:43:24;;;;;;;;;;;8.70;96.30;;;;;;5080405;28;20437;-73
2024/01/24 09:45:50;;;;;;;;;;;8.70;96.40;;;;;;5100694;28;19935;-73
2024/01/24 09:48:22;;;;;;;;;;;8.90;96.40;;;;;;5086815;28;19931;-73
2024/01/24 09:50:48;;;;;;;;;;;8.50;96.60;;;;;;5085833;28;19927;-72
2024/01/24 09:53:19;;;;;;;;;;;8.70;96.80;;;;;;5071695;28;19927;-73
2024/01/24 09:55:45;;;;;;;;;;;8.80;97.10;;;;;;5103252;28;20447;-73
2024/01/24 09:58:11;;;;;;;;;;;8.50;96.80;;;;;;5102675;28;20286;-73
2024/01/24 10:00:39;;;;;;;;;;;8.60;96.90;;;;;;5083702;28;19979;-73
2024/01/24 10:03:06;;;;;;;;;;;8.90;96.40;;;;;;5085466;28;20006;-73
2024/01/24 10:05:33;;;;;;;;;;;9.30;96.10;;;;;;5087414;28;19959;-73
2024/01/24 10:08:00;;;;;;;;;;;8.90;95.40;;;;;;5084693;28;20111;-73
2024/01/24 10:10:26;;;;;;;;;;;9.50;94.80;;;;;;5087216;28;19931;-73
2024/01/24 10:12:58;;;;;;;;;;;9.80;93.80;;;;;;5068889;28;19934;-72
2024/01/24 10:15:30;;;;;;;;;;;9.80;92.40;;;;;;5082422;28;19928;-73
2024/01/24 10:18:15;;;;;;;;;;;10.10;89.50;;;;;;5087494;28;19982;-72
2024/01/24 10:20:42;;;;;;;;;;;10.00;88.60;;;;;;5084378;28;20011;-73
2024/01/24 10:23:08;;;;;;;;;;;9.90;87.60;;;;;;5071623;28;19977;-73
2024/01/24 10:25:38;;;;;;;;;;;9.30;84.70;;;;;;5069855;28;19928;-71
2024/01/24 10:28:11;;;;;;;;;;;10.10;85.80;;;;;;5086031;28;20010;-73
2024/01/24 10:30:53;;;;;;;;;;;10.10;85.00;;;;;;5085295;28;19928;-73
2024/01/24 10:33:22;;;;;;;;;;;9.60;86.90;;;;;;5070405;28;19932;-73
2024/01/24 10:35:48;;;;;;;;;;;9.50;88.20;;;;;;5052946;28;20381;-73
2024/01/24 10:38:17;;;;;;;;;;;10.10;86.30;;;;;;5068008;28;19934;-72
2024/01/24 10:40:52;;;;;;;;;;;10.00;84.00;;;;;;5084214;28;19982;-73
2024/01/24 10:43:19;;;;;;;;;;;10.70;78.90;;;;;;5081886;28;19973;-73
2024/01/24 10:45:48;;;;;;;;;;;10.50;80.50;;;;;;5080748;28;20341;-72
2024/01/24 10:48:15;;;;;;;;;;;10.70;80.80;;;;;;5063017;28;19931;-72
2024/01/24 10:50:48;;;;;;;;;;;10.40;74.10;;;;;;5064089;28;20512;-73
2024/01/24 10:53:14;;;;;;;;;;;10.60;73.50;;;;;;5049116;28;19931;-73
2024/01/24 10:55:44;;;;;;;;;;;10.30;74.80;;;;;;5077473;28;19951;-73
2024/01/24 10:58:12;;;;;;;;;;;10.30;76.30;;;;;;5064793;28;19934;-73
2024/01/24 11:00:41;;;;;;;;;;;10.50;74.50;;;;;;5059463;28;19928;-78
2024/01/24 11:03:07;;;;;;;;;;;10.90;71.20;;;;;;5074706;28;19928;-78
2024/01/24 11:05:46;;;;;;;;;;;11.20;68.60;;;;;;5063454;28;19924;-76
2024/01/24 11:08:30;;;;;;;;;;;11.10;66.70;;;;;;5046866;28;20419;-78
2024/01/24 11:10:59;;;;;;;;;;;10.20;69.30;;;;;;5063919;28;20354;-78
2024/01/24 11:13:43;;;;;;;;;;;10.20;78.00;;;;;;5062918;28;19950;-78
2024/01/24 11:16:29;;;;;;;;;;;9.70;80.70;;;;;;5064066;28;19928;-77
2024/01/24 11:19:13;;;;;;;;;;;10.00;81.60;;;;;;5082837;28;20047;-77
2024/01/24 11:21:39;;;;;;;;;;;9.90;84.30;;;;;;5081720;28;19958;-87
2024/01/24 11:24:05;;;;;;;;;;;9.80;83.70;;;;;;5088805;28;19938;-90
2024/01/24 11:26:31;;;;;;;;;;;9.70;84.90;;;;;;5059768;28;19928;-90
2024/01/24 11:29:06;;;;;;;;;;;9.50;83.70;;;;;;5087358;28;19928;-91
2024/01/24 11:31:39;;;;;;;;;;;9.90;83.10;;;;;;5107353;28;19932;-86
2024/01/24 11:34:12;;;;;;;;;;;9.60;82.50;;;;;;5107185;28;19931;-90
2024/01/24 11:36:53;;;;;;;;;;;9.60;82.90;;;;;;5069515;28;20052;-87
2024/01/24 11:39:28;;;;;;;;;;;9.80;82.50;;;;;;5056518;28;19924;-85
2024/01/24 11:41:54;;;;;;;;;;;9.90;83.40;;;;;;5086325;28;20336;-84
2024/01/24 11:44:20;;;;;;;;;;;9.90;82.70;;;;;;5069252;28;19928;-89
2024/01/24 11:46:46;;;;;;;;;;;9.60;83.80;;;;;;5058083;28;20283;-82
2024/01/24 11:49:17;;;;;;;;;;;9.80;84.30;;;;;;5101293;28;19931;-85
2024/01/24 11:51:43;;;;;;;;;;;9.70;84.80;;;;;;5066147;28;19923;-81
2024/01/24 11:54:08;;;;;;;;;;;9.80;85.00;;;;;;5100149;28;19954;-81
2024/01/24 11:56:36;;;;;;;;;;;9.70;85.50;;;;;;5067188;28;19932;-80
2024/01/24 11:59:01;;;;;;;;;;;9.70;85.80;;;;;;5084613;28;20366;-80
2024/01/24 12:01:29;;;;;;;;;;;9.80;85.50;;;;;;5071229;28;20049;-80
2024/01/24 12:03:55;;;;;;;;;;;9.30;85.10;;;;;;5086336;28;20519;-81
2024/01/24 12:06:21;;;;;;;;;;;9.70;86.20;;;;;;5103891;28;19924;-81
2024/01/24 12:08:46;;;;;;;;;;;9.40;86.30;;;;;;5089902;28;20278;-80
2024/01/24 12:11:13;;;;;;;;;;;9.20;85.70;;;;;;5092508;28;19927;-80
2024/01/24 12:13:39;;;;;;;;;;;9.30;86.10;;;;;;5058225;28;19953;-80
2024/01/24 12:16:08;;;;;;;;;;;9.40;87.30;;;;;;5089811;28;20014;-81
2024/01/24 12:18:36;;;;;;;;;;;9.10;87.20;;;;;;5076025;28;20412;-80
2024/01/24 12:21:09;;;;;;;;;;;9.60;88.00;;;;;;5091085;28;19935;-82
2024/01/24 12:23:34;;;;;;;;;;;9.20;87.90;;;;;;5089118;28;19938;-81
2024/01/24 12:26:00;;;;;;;;;;;9.20;87.90;;;;;;5090232;28;20408;-81
2024/01/24 12:28:25;;;;;;;;;;;9.20;88.40;;;;;;5088984;28;19939;-80
2024/01/24 12:30:53;;;;;;;;;;;9.20;88.50;;;;;;5070535;28;19924;-81
2024/01/24 12:33:18;;;;;;;;;;;9.40;89.70;;;;;;5091480;28;19927;-80
2024/01/24 12:35:48;;;;;;;;;;;9.40;88.80;;;;;;5094095;28;19931;-87
2024/01/24 12:38:14;;;;;;;;;;;9.60;88.50;;;;;;5076047;28;19935;-89
2024/01/24 12:40:40;;;;;;;;;;;9.50;88.10;;;;;;5063157;28;19981;-92
2024/01/24 12:43:22;;;;;;;;;;;9.00;88.10;;;;;;5099679;28;19934;-88
2024/01/24 12:45:47;;;;;;;;;;;9.30;89.20;;;;;;5094091;28;19967;-91
2024/01/24 12:48:13;;;;;;;;;;;9.10;89.40;;;;;;5077700;28;19971;-89
2024/01/24 12:50:39;;;;;;;;;;;9.50;89.50;;;;;;5061238;28;19938;-89
2024/01/24 12:53:04;;;;;;;;;;;9.70;88.50;;;;;;5075851;28;19985;-93
2024/01/24 12:55:30;;;;;;;;;;;9.60;88.30;;;;;;5062521;28;20510;-85
2024/01/24 12:57:55;;;;;;;;;;;9.60;87.90;;;;;;5076846;28;19983;-89
2024/01/24 13:00:21;;;;;;;;;;;9.00;88.80;;;;;;5058393;28;19924;-92
2024/01/24 13:02:47;;;;;;;;;;;9.60;89.80;;;;;;5059935;28;19969;-81
2024/01/24 13:05:12;;;;;;;;;;;9.30;90.20;;;;;;5089796;27;19997;-80
2024/01/24 13:07:39;;;;;;;;;;;8.90;90.10;;;;;;5092053;28;19927;-79
2024/01/24 13:10:05;;;;;;;;;;;9.30;90.50;;;;;;5112635;28;19955;-79
2024/01/24 13:12:31;;;;;;;;;;;9.10;91.10;;;;;;5092880;28;19946;-78
2024/01/24 13:14:57;;;;;;;;;;;9.50;91.10;;;;;;5108373;28;19923;-81
2024/01/24 13:17:23;;;;;;;;;;;8.90;90.80;;;;;;5111204;28;19950;-80
2024/01/24 13:19:49;;;;;;;;;;;9.10;90.90;;;;;;5073594;28;19935;-81
2024/01/24 13:22:14;;;;;;;;;;;9.10;91.10;;;;;;5075155;28;19932;-80
2024/01/24 13:24:40;;;;;;;;;;;9.20;91.20;;;;;;5070068;28;20354;-78
2024/01/24 13:27:06;;;;;;;;;;;9.50;91.20;;;;;;5069712;28;19969;-79
2024/01/24 13:29:33;;;;;;;;;;;9.50;91.40;;;;;;5086974;28;20469;-79
2024/01/24 13:31:58;;;;;;;;;;;8.80;91.50;;;;;;5071769;27;19928;-79
2024/01/24 13:34:26;;;;;;;;;;;8.80;91.70;;;;;;5100580;27;20023;-79
2024/01/24 13:36:52;;;;;;;;;;;9.00;91.80;;;;;;5069104;28;20294;-79
2024/01/24 13:39:17;;;;;;;;;;;9.20;92.30;;;;;;5099622;28;19932;-78
2024/01/24 13:41:44;;;;;;;;;;;8.80;92.00;;;;;;5067609;28;19943;-78
2024/01/24 13:44:10;;;;;;;;;;;9.40;92.20;;;;;;5099980;28;20431;-79
2024/01/24 13:46:36;;;;;;;;;;;8.70;92.40;;;;;;5086479;28;19967;-79
2024/01/24 13:49:03;;;;;;;;;;;9.30;92.80;;;;;;5091689;28;20620;-89
2024/01/24 13:51:31;;;;;;;;;;;9.00;92.90;;;;;;5071781;28;19972;-91
2024/01/24 13:53:57;;;;;;;;;;;8.80;93.00;;;;;;5101996;28;19928;-90
2024/01/24 13:56:24;;;;;;;;;;;8.90;93.00;;;;;;5071344;28;19949;-91
2024/01/24 13:58:50;;;;;;;;;;;8.60;93.10;;;;;;5074472;28;19928;-78
2024/01/24 14:01:16;;;;;;;;;;;9.20;93.60;;;;;;5085289;28;19946;-81
2024/01/24 14:03:42;;;;;;;;;;;9.20;93.60;;;;;;5068477;28;19928;-91
2024/01/24 14:06:08;;;;;;;;;;;8.50;93.60;;;;;;5057094;28;19928;-88
2024/01/24 14:08:37;;;;;;;;;;;8.50;93.60;;;;;;5089239;28;19908;-90
2024/01/24 14:11:06;;;;;;;;;;;8.50;93.60;;;;;;5074193;28;19935;-89
2024/01/24 14:13:32;;;;;;;;;;;9.10;93.90;;;;;;5055069;28;19931;-87
2024/01/24 14:15:59;;;;;;;;;;;8.80;94.20;;;;;;5089331;28;19936;-88
2024/01/24 14:18:34;;;;;;;;;;;9.00;94.30;;;;;;5076638;28;20173;-91
2024/01/24 14:21:00;;;;;;;;;;;8.70;94.40;;;;;;5053306;28;19932;-89
2024/01/24 14:23:31;;;;;;;;;;;8.50;94.70;;;;;;5070986;28;20045;-89
2024/01/24 14:25:58;;;;;;;;;;;9.00;94.90;;;;;;5066151;28;19940;-79
2024/01/24 14:28:23;;;;;;;;;;;8.90;95.10;;;;;;5084286;28;20014;-77
2024/01/24 14:30:55;;;;;;;;;;;8.50;95.20;;;;;;5069498;28;19931;-79
2024/01/24 14:33:20;;;;;;;;;;;8.40;95.10;;;;;;5083514;28;20107;-79
2024/01/24 14:35:46;;;;;;;;;;;9.00;95.50;;;;;;5075483;28;20299;-79
2024/01/24 14:38:21;;;;;;;;;;;8.20;95.30;;;;;;5099894;28;20267;-81